Time;durP1;ratioP1;P1;durP2;ratioP2;P2;SDS_P1;SDS_P2;PMS_P1;PMS_P2;Temp;Humidity;BMP_temperature;BMP_pressure;BME280_temperature;BME280_humidity;BME280_pressure;Samples;Min_cycle;Max_cycle;Signal;HPM_P1;HPM_P2
2024/01/08 00:01:29;;;;;;;;;;;;;;;-7.04;51.27;99486.32;109383;1253;75519;-61
2024/01/08 00:03:57;;;;;;;;;;;;;;;-7.22;51.40;99485.90;109148;1253;66983;-64
2024/01/08 00:06:25;;;;;;;;;;;;;;;-7.09;51.57;99489.61;109421;1253;72740;-61
2024/01/08 00:08:52;;;;;;;;;;;;;;;-7.00;51.01;99495.91;109463;1253;61420;-61
2024/01/08 00:11:20;;;;;;;;;;;;;;;-6.90;50.79;99502.27;109573;1252;59879;-63
2024/01/08 00:13:47;;;;;;;;;;;;;;;-6.95;50.59;99506.89;109637;1252;75505;-62
2024/01/08 00:16:15;;;;;;;;;;;;;;;-7.01;50.82;99507.45;109490;1251;67573;-64
2024/01/08 00:18:44;;;;;;;;;;;;;;;-7.21;51.06;99506.49;108797;1251;1002358;-65
2024/01/08 00:21:12;;;;;;;;;;;;;;;-6.98;50.77;99516.38;109444;1254;62512;-64
2024/01/08 00:23:40;;;;;;;;;;;;;;;-7.07;50.26;99511.30;109275;1253;60177;-62
2024/01/08 00:26:07;;;;;;;;;;;;;;;-7.24;50.70;99518.23;109557;1253;75510;-62
2024/01/08 00:28:34;;;;;;;;;;;;;;;-7.16;50.71;99520.09;109586;1252;68824;-62
2024/01/08 00:31:02;;;;;;;;;;;;;;;-6.84;50.16;99526.54;109584;1252;72763;-62
2024/01/08 00:33:29;;;;;;;;;;;;;;;-7.02;50.32;99521.60;109529;1252;61259;-61
2024/01/08 00:35:57;;;;;;;;;;;;;;;-7.11;50.33;99517.73;109561;1252;59785;-63
2024/01/08 00:38:24;;;;;;;;;;;;;;;-7.20;50.19;99519.08;109604;1253;74513;-62
2024/01/08 00:40:52;;;;;;;;;;;;;;;-7.29;50.73;99517.35;109441;1251;67369;-62
2024/01/08 00:43:19;;;;;;;;;;;;;;;-7.26;50.55;99526.22;109532;1252;72750;-63
2024/01/08 00:45:47;;;;;;;;;;;;;;;-7.34;50.60;99528.02;109518;1252;61279;-63
2024/01/08 00:48:15;;;;;;;;;;;;;;;-7.52;50.60;99512.67;109499;1252;59934;-61
2024/01/08 00:50:42;;;;;;;;;;;;;;;-7.26;50.59;99519.98;109460;1253;74232;-61
2024/01/08 00:53:10;;;;;;;;;;;;;;;-7.14;50.29;99515.08;109425;1252;68824;-62
2024/01/08 00:55:37;;;;;;;;;;;;;;;-7.26;50.24;99514.77;109418;1254;72731;-62
2024/01/08 00:58:05;;;;;;;;;;;;;;;-7.65;50.68;99517.58;109457;1253;61396;-61
2024/01/08 01:00:32;;;;;;;;;;;;;;;-7.85;51.29;99508.78;109483;1253;59877;-61
2024/01/08 01:03:00;;;;;;;;;;;;;;;-7.58;50.79;99511.41;109489;1253;73600;-62
2024/01/08 01:05:27;;;;;;;;;;;;;;;-7.71;51.05;99513.75;109459;1253;68531;-61
2024/01/08 01:07:55;;;;;;;;;;;;;;;-7.88;51.42;99502.66;109463;1253;71434;-60
2024/01/08 01:10:22;;;;;;;;;;;;;;;-7.99;51.78;99508.77;109512;1252;61452;-61
2024/01/08 01:12:50;;;;;;;;;;;;;;;-7.64;51.32;99508.98;109539;1252;60300;-60
2024/01/08 01:15:17;;;;;;;;;;;;;;;-7.66;50.97;99514.80;109554;1252;75514;-62
2024/01/08 01:17:44;;;;;;;;;;;;;;;-7.41;50.57;99514.39;109537;1251;67361;-62
2024/01/08 01:20:12;;;;;;;;;;;;;;;-7.38;50.49;99507.52;109618;1253;71467;-61
2024/01/08 01:22:40;;;;;;;;;;;;;;;-7.36;50.20;99507.21;109574;1252;62578;-62
2024/01/08 01:25:07;;;;;;;;;;;;;;;-7.24;50.05;99506.39;108855;1253;1002270;-61
2024/01/08 01:27:35;;;;;;;;;;;;;;;-7.43;50.08;99499.34;108470;1252;1002338;-62
2024/01/08 01:30:03;;;;;;;;;;;;;;;-7.70;50.52;99496.34;109645;1251;68786;-60
2024/01/08 01:32:32;;;;;;;;;;;;;;;-7.82;50.72;99490.83;109560;1252;72747;-61
2024/01/08 01:35:00;;;;;;;;;;;;;;;-7.53;50.60;99493.80;109470;1253;61299;-61
2024/01/08 01:37:27;;;;;;;;;;;;;;;-7.71;50.32;99491.94;109648;1252;59716;-61
2024/01/08 01:39:55;;;;;;;;;;;;;;;-7.81;50.47;99498.33;109298;1251;75581;-65
2024/01/08 01:42:23;;;;;;;;;;;;;;;-7.71;50.45;99492.62;108872;1252;1002295;-61
2024/01/08 01:44:50;;;;;;;;;;;;;;;-7.66;50.49;99508.12;109212;1253;71431;-61
2024/01/08 01:47:18;;;;;;;;;;;;;;;-7.51;50.27;99511.61;109320;1253;62677;-61
2024/01/08 01:49:45;;;;;;;;;;;;;;;-7.67;50.26;99513.06;109140;1253;59760;-63
2024/01/08 01:52:13;;;;;;;;;;;;;;;-7.64;50.10;99511.30;109108;1253;75522;-61
2024/01/08 01:54:40;;;;;;;;;;;;;;;-7.71;50.42;99510.48;109456;1253;68821;-62
2024/01/08 01:57:08;;;;;;;;;;;;;;;-7.61;50.08;99510.45;109483;1253;72777;-62
2024/01/08 01:59:35;;;;;;;;;;;;;;;-7.49;50.15;99515.00;109382;1254;61344;-61
2024/01/08 02:02:04;;;;;;;;;;;;;;;-7.39;49.87;99516.83;109464;1253;59722;-61
2024/01/08 02:04:32;;;;;;;;;;;;;;;-7.69;49.90;99506.28;109461;1253;75570;-61
2024/01/08 02:07:00;;;;;;;;;;;;;;;-7.78;50.16;99513.94;109460;1253;68837;-62
2024/01/08 02:09:28;;;;;;;;;;;;;;;-7.85;50.51;99514.51;109522;1251;71443;-62
2024/01/08 02:11:55;;;;;;;;;;;;;;;-7.82;50.15;99519.67;108799;1252;1002190;-60
2024/01/08 02:14:23;;;;;;;;;;;;;;;-7.72;50.04;99514.73;109419;1252;59633;-62
2024/01/08 02:16:51;;;;;;;;;;;;;;;-7.62;49.88;99511.94;109489;1252;74268;-60
2024/01/08 02:19:18;;;;;;;;;;;;;;;-7.73;49.89;99516.74;109618;1252;67591;-61
2024/01/08 02:21:46;;;;;;;;;;;;;;;-7.66;49.83;99509.73;109636;1252;72741;-61
2024/01/08 02:24:14;;;;;;;;;;;;;;;-7.85;50.12;99508.67;108703;1254;1002302;-59
2024/01/08 02:26:42;;;;;;;;;;;;;;;-8.01;50.43;99510.52;109548;1252;59800;-60
2024/01/08 02:29:09;;;;;;;;;;;;;;;-7.76;50.30;99516.66;109586;1251;74574;-61
2024/01/08 02:31:37;;;;;;;;;;;;;;;-7.71;50.10;99518.13;109597;1251;68900;-61
2024/01/08 02:34:04;;;;;;;;;;;;;;;-7.62;49.72;99516.33;109591;1251;73624;-62
2024/01/08 02:36:32;;;;;;;;;;;;;;;-7.62;49.59;99513.47;109504;1255;61335;-65
2024/01/08 02:38:59;;;;;;;;;;;;;;;-7.65;49.62;99517.56;109499;1252;59891;-62
2024/01/08 02:41:26;;;;;;;;;;;;;;;-7.65;49.74;99522.85;109531;1252;75513;-62
2024/01/08 02:43:54;;;;;;;;;;;;;;;-7.81;49.95;99531.36;109613;1253;67711;-63
2024/01/08 02:46:22;;;;;;;;;;;;;;;-7.71;49.84;99531.70;109521;1252;72728;-61
2024/01/08 02:48:49;;;;;;;;;;;;;;;-7.76;49.82;99531.58;109208;1254;61308;-61
2024/01/08 02:51:17;;;;;;;;;;;;;;;-7.80;49.89;99534.56;109272;1253;59901;-62
2024/01/08 02:53:45;;;;;;;;;;;;;;;-7.85;49.99;99542.46;109394;1253;74545;-62
2024/01/08 02:56:19;;;;;;;;;;;;;;;-7.66;49.77;99542.19;109380;1252;68818;-61
2024/01/08 02:58:47;;;;;;;;;;;;;;;-7.87;49.89;99538.21;109508;1253;71459;-62
2024/01/08 03:01:15;;;;;;;;;;;;;;;-7.87;50.02;99538.31;109409;1255;61540;-63
2024/01/08 03:03:42;;;;;;;;;;;;;;;-7.68;50.01;99544.46;109459;1253;59913;-61
2024/01/08 03:06:10;;;;;;;;;;;;;;;-7.51;49.68;99546.98;109307;1253;74236;-63
2024/01/08 03:08:37;;;;;;;;;;;;;;;-7.92;50.01;99535.80;109498;1253;67678;-65
2024/01/08 03:11:05;;;;;;;;;;;;;;;-7.84;49.95;99541.50;108548;1252;1002477;-63
2024/01/08 03:13:32;;;;;;;;;;;;;;;-7.76;49.90;99550.40;108763;1253;1003048;-65
2024/01/08 03:16:00;;;;;;;;;;;;;;;-7.59;49.55;99551.11;109595;1253;59847;-65
2024/01/08 03:18:27;;;;;;;;;;;;;;;-7.72;49.49;99549.01;109627;1252;74337;-65
2024/01/08 03:20:55;;;;;;;;;;;;;;;-7.67;49.49;99554.25;109585;1252;68609;-64
2024/01/08 03:23:22;;;;;;;;;;;;;;;-7.79;49.63;99548.02;109491;1251;72795;-64
2024/01/08 03:25:50;;;;;;;;;;;;;;;-7.70;49.63;99547.41;109566;1252;62513;-65
2024/01/08 03:28:17;;;;;;;;;;;;;;;-7.74;49.59;99544.69;109535;1252;59878;-64
2024/01/08 03:30:45;;;;;;;;;;;;;;;-7.81;49.90;99557.05;109564;1252;74310;-65
2024/01/08 03:33:12;;;;;;;;;;;;;;;-7.55;49.30;99566.05;109653;1252;67584;-64
2024/01/08 03:35:40;;;;;;;;;;;;;;;-7.63;49.18;99565.41;109620;1252;71459;-65
2024/01/08 03:38:07;;;;;;;;;;;;;;;-7.69;49.40;99566.64;109567;1253;62579;-66
2024/01/08 03:40:35;;;;;;;;;;;;;;;-7.62;49.31;99574.36;109567;1254;59795;-64
2024/01/08 03:43:02;;;;;;;;;;;;;;;-7.98;49.86;99578.23;109618;1252;75497;-67
2024/01/08 03:45:30;;;;;;;;;;;;;;;-7.68;49.42;99583.60;109532;1252;68803;-65
2024/01/08 03:47:57;;;;;;;;;;;;;;;-7.56;49.12;99583.30;109549;1253;72803;-65
2024/01/08 03:50:25;;;;;;;;;;;;;;;-7.60;49.05;99582.14;109480;1253;62556;-65
2024/01/08 03:52:52;;;;;;;;;;;;;;;-8.00;49.61;99578.70;109175;1253;59852;-65
2024/01/08 03:55:20;;;;;;;;;;;;;;;-8.04;49.55;99582.91;109460;1252;75429;-64
2024/01/08 03:57:47;;;;;;;;;;;;;;;-8.18;49.76;99579.94;109358;1253;67663;-65
2024/01/08 04:00:15;;;;;;;;;;;;;;;-7.83;49.65;99586.27;109502;1253;72706;-62
2024/01/08 04:02:42;;;;;;;;;;;;;;;-7.79;49.14;99587.84;109333;1253;61307;-65
2024/01/08 04:05:11;;;;;;;;;;;;;;;-7.84;48.98;99586.31;109352;1253;59849;-61
2024/01/08 04:07:39;;;;;;;;;;;;;;;-8.22;49.67;99575.41;109177;1253;74807;-61
2024/01/08 04:10:07;;;;;;;;;;;;;;;-8.12;49.35;99574.07;109565;1252;67670;-62
2024/01/08 04:12:35;;;;;;;;;;;;;;;-7.76;48.80;99588.59;109551;1253;71429;-65
2024/01/08 04:15:02;;;;;;;;;;;;;;;-7.68;48.91;99588.57;109611;1252;62588;-66
2024/01/08 04:17:30;;;;;;;;;;;;;;;-7.79;49.39;99593.06;109369;1253;59893;-65
2024/01/08 04:19:57;;;;;;;;;;;;;;;-7.96;49.45;99597.17;109625;1253;75536;-64
2024/01/08 04:22:25;;;;;;;;;;;;;;;-7.81;49.41;99607.48;109513;1251;68537;-62
2024/01/08 04:24:52;;;;;;;;;;;;;;;-7.64;48.79;99610.33;109584;1252;71434;-65
2024/01/08 04:27:20;;;;;;;;;;;;;;;-7.51;48.39;99612.12;108806;1254;1002771;-62
2024/01/08 04:29:47;;;;;;;;;;;;;;;-7.30;48.20;99617.89;109633;1252;59762;-62
2024/01/08 04:32:15;;;;;;;;;;;;;;;-7.70;48.66;99613.09;109565;1252;75488;-63
2024/01/08 04:34:42;;;;;;;;;;;;;;;-7.85;49.14;99617.84;109596;1252;67657;-61
2024/01/08 04:37:09;;;;;;;;;;;;;;;-7.58;48.75;99617.92;109546;1253;71459;-63
2024/01/08 04:39:37;;;;;;;;;;;;;;;-7.67;48.76;99617.37;109593;1253;62546;-61
2024/01/08 04:42:05;;;;;;;;;;;;;;;-7.86;48.65;99624.35;109410;1253;59786;-63
2024/01/08 04:44:32;;;;;;;;;;;;;;;-7.88;48.87;99626.67;109681;1253;75505;-62
2024/01/08 04:47:00;;;;;;;;;;;;;;;-7.77;48.62;99631.79;108828;1252;1002908;-63
2024/01/08 04:49:28;;;;;;;;;;;;;;;-7.78;48.82;99637.27;108588;1253;1002644;-62
2024/01/08 04:51:55;;;;;;;;;;;;;;;-7.78;48.67;99633.57;108679;1254;1002306;-62
2024/01/08 04:54:23;;;;;;;;;;;;;;;-7.76;48.33;99646.14;109449;1256;59893;-62
2024/01/08 04:56:50;;;;;;;;;;;;;;;-7.91;48.60;99646.17;109520;1253;75499;-60
2024/01/08 04:59:19;;;;;;;;;;;;;;;-8.03;48.49;99646.17;109342;1253;67492;-61
2024/01/08 05:01:47;;;;;;;;;;;;;;;-8.03;48.31;99649.36;109466;1253;72828;-63
2024/01/08 05:04:15;;;;;;;;;;;;;;;-8.15;48.24;99654.86;109332;1254;61347;-63
2024/01/08 05:06:42;;;;;;;;;;;;;;;-8.05;48.15;99663.61;109358;1253;59941;-61
2024/01/08 05:09:10;;;;;;;;;;;;;;;-8.20;48.31;99655.80;109206;1253;75468;-62
2024/01/08 05:11:38;;;;;;;;;;;;;;;-8.17;48.35;99668.02;109162;1253;68800;-60
2024/01/08 05:14:05;;;;;;;;;;;;;;;-8.42;48.29;99663.62;109346;1253;72699;-61
2024/01/08 05:16:33;;;;;;;;;;;;;;;-8.41;48.44;99673.74;109433;1253;62578;-62
2024/01/08 05:19:00;;;;;;;;;;;;;;;-8.32;48.21;99679.73;109481;1253;59718;-62
2024/01/08 05:21:28;;;;;;;;;;;;;;;-8.40;47.98;99683.70;109500;1253;75557;-65
2024/01/08 05:23:55;;;;;;;;;;;;;;;-8.46;48.35;99681.05;109359;1253;144017;-61
2024/01/08 05:26:23;;;;;;;;;;;;;;;-8.28;47.72;99691.23;109294;1256;72736;-61
2024/01/08 05:28:50;;;;;;;;;;;;;;;-8.28;47.65;99688.45;109498;1253;61238;-61
2024/01/08 05:31:18;;;;;;;;;;;;;;;-8.23;47.57;99685.55;109443;1253;59690;-60
2024/01/08 05:33:45;;;;;;;;;;;;;;;-8.23;47.31;99690.65;109471;1253;75541;-61
2024/01/08 05:36:13;;;;;;;;;;;;;;;-8.22;47.31;99691.25;109360;1253;67261;-60
2024/01/08 05:38:40;;;;;;;;;;;;;;;-8.38;47.63;99686.99;109335;1252;72749;-61
2024/01/08 05:41:08;;;;;;;;;;;;;;;-8.17;47.30;99689.94;109288;1256;62607;-62
2024/01/08 05:43:38;;;;;;;;;;;;;;;-8.43;47.47;99684.17;109500;1253;59760;-61
2024/01/08 05:46:06;;;;;;;;;;;;;;;-8.62;47.62;99687.69;109234;1252;74221;-61
2024/01/08 05:48:37;;;;;;;;;;;;;;;-8.65;47.64;99695.67;109555;1252;68529;-62
2024/01/08 05:51:05;;;;;;;;;;;;;;;-8.48;47.57;99693.40;109563;1252;72880;-60
2024/01/08 05:53:33;;;;;;;;;;;;;;;-8.60;47.41;99689.40;109295;1255;62554;-61
2024/01/08 05:56:00;;;;;;;;;;;;;;;-8.75;47.53;99697.77;109529;1252;59876;-61
2024/01/08 05:58:28;;;;;;;;;;;;;;;-8.65;47.58;99704.37;109583;1252;74265;-61
2024/01/08 06:00:57;;;;;;;;;;;;;;;-8.22;47.14;99717.98;109541;1252;68852;-61
2024/01/08 06:03:24;;;;;;;;;;;;;;;-8.47;47.10;99719.67;109570;1252;74614;-60
2024/01/08 06:05:52;;;;;;;;;;;;;;;-8.54;47.10;99719.43;109261;1257;62524;-63
2024/01/08 06:08:19;;;;;;;;;;;;;;;-8.85;47.83;99713.15;109577;1253;59689;-61
2024/01/08 06:10:48;;;;;;;;;;;;;;;-8.63;47.73;99722.29;109460;1252;74656;-61
2024/01/08 06:13:16;;;;;;;;;;;;;;;-8.92;48.08;99720.44;109499;1252;68777;-61
2024/01/08 06:15:44;;;;;;;;;;;;;;;-8.58;48.02;99732.08;109509;1252;72681;-61
2024/01/08 06:18:11;;;;;;;;;;;;;;;-8.56;47.87;99733.15;109147;1253;61292;-62
2024/01/08 06:20:39;;;;;;;;;;;;;;;-8.56;47.81;99746.55;109175;1252;59819;-63
2024/01/08 06:23:07;;;;;;;;;;;;;;;-8.55;47.79;99746.31;109474;1253;75553;-64
2024/01/08 06:25:34;;;;;;;;;;;;;;;-8.57;47.96;99746.58;109509;1252;66309;-63
2024/01/08 06:28:02;;;;;;;;;;;;;;;-8.84;48.12;99739.05;109216;1254;71443;-62
2024/01/08 06:30:29;;;;;;;;;;;;;;;-8.90;48.27;99745.42;109274;1254;62655;-63
2024/01/08 06:32:57;;;;;;;;;;;;;;;-8.80;48.15;99750.08;109378;1253;59770;-61
2024/01/08 06:35:24;;;;;;;;;;;;;;;-8.77;48.07;99748.57;109321;1253;75528;-65
2024/01/08 06:37:52;;;;;;;;;;;;;;;-8.66;48.12;99750.79;109381;1254;68110;-62
2024/01/08 06:40:19;;;;;;;;;;;;;;;-8.94;48.33;99749.46;109329;1253;72687;-61
2024/01/08 06:42:48;;;;;;;;;;;;;;;-8.89;48.28;99748.71;108549;1256;1002523;-60
2024/01/08 06:45:27;;;;;;;;;;;;;;;-9.00;48.37;99755.96;109159;1254;59954;-61
2024/01/08 06:47:55;;;;;;;;;;;;;;;-9.09;48.72;99762.77;109403;1254;75502;-61
2024/01/08 06:50:23;;;;;;;;;;;;;;;-9.00;48.60;99757.71;109273;1255;67177;-61
2024/01/08 06:52:50;;;;;;;;;;;;;;;-8.71;48.33;99772.23;109279;1255;72735;-61
2024/01/08 06:55:18;;;;;;;;;;;;;;;-8.82;48.08;99772.20;109239;1254;61282;-62
2024/01/08 06:57:48;;;;;;;;;;;;;;;-9.11;48.25;99768.35;109253;1254;59896;-62
2024/01/08 07:00:15;;;;;;;;;;;;;;;-8.78;48.24;99770.73;108726;1253;1002324;-61
2024/01/08 07:02:43;;;;;;;;;;;;;;;-8.95;48.14;99764.98;109621;1253;67383;-61
2024/01/08 07:05:11;;;;;;;;;;;;;;;-8.98;48.30;99773.36;109544;1253;72795;-63
2024/01/08 07:07:40;;;;;;;;;;;;;;;-8.96;48.15;99766.98;109526;1253;61550;-61
2024/01/08 07:10:08;;;;;;;;;;;;;;;-9.09;48.30;99767.13;109548;1253;59909;-61
2024/01/08 07:12:35;;;;;;;;;;;;;;;-9.03;48.17;99781.52;109273;1253;74180;-61
2024/01/08 07:15:03;;;;;;;;;;;;;;;-8.90;48.21;99791.45;109436;1253;67636;-62
2024/01/08 07:17:33;;;;;;;;;;;;;;;-8.58;48.08;99798.23;109228;1257;71463;-62
2024/01/08 07:20:02;;;;;;;;;;;;;;;-8.37;47.54;99799.97;108739;1252;1002531;-61
2024/01/08 07:22:29;;;;;;;;;;;;;;;-8.51;47.24;99812.36;109614;1252;59886;-62
2024/01/08 07:24:57;;;;;;;;;;;;;;;-8.60;47.25;99804.80;108756;1253;1002969;-61
2024/01/08 07:27:24;;;;;;;;;;;;;;;-8.31;46.77;99808.48;109563;1252;68549;-61
2024/01/08 07:29:53;;;;;;;;;;;;;;;-8.50;47.19;99813.05;109501;1253;72363;-64
2024/01/08 07:32:20;;;;;;;;;;;;;;;-8.51;47.10;99811.02;109520;1253;62518;-62
2024/01/08 07:34:48;;;;;;;;;;;;;;;-8.13;46.71;99821.23;109540;1253;59671;-62
2024/01/08 07:37:15;;;;;;;;;;;;;;;-8.56;47.08;99812.23;109555;1253;75539;-62
2024/01/08 07:39:43;;;;;;;;;;;;;;;-8.49;47.14;99820.23;109527;1253;68792;-64
2024/01/08 07:42:10;;;;;;;;;;;;;;;-8.33;47.04;99818.73;109090;1253;71581;-61
2024/01/08 07:44:38;;;;;;;;;;;;;;;-8.39;47.02;99827.17;109212;1254;62566;-60
2024/01/08 07:47:05;;;;;;;;;;;;;;;-8.67;47.42;99823.58;109525;1252;59774;-61
2024/01/08 07:49:33;;;;;;;;;;;;;;;-8.47;47.10;99827.71;109501;1253;75513;-60
2024/01/08 07:52:00;;;;;;;;;;;;;;;-8.37;47.01;99831.73;109228;1253;68941;-61
2024/01/08 07:54:28;;;;;;;;;;;;;;;-8.05;46.72;99837.52;108482;1253;1002449;-61
2024/01/08 07:56:55;;;;;;;;;;;;;;;-8.17;46.40;99838.72;109479;1254;61305;-61
2024/01/08 07:59:29;;;;;;;;;;;;;;;-8.19;46.44;99832.48;109485;1254;59908;-62
2024/01/08 08:01:57;;;;;;;;;;;;;;;-8.12;46.38;99841.27;109338;1253;75548;-62
2024/01/08 08:04:24;;;;;;;;;;;;;;;-8.05;46.49;99838.41;109505;1253;67244;-62
2024/01/08 08:06:53;;;;;;;;;;;;;;;-7.99;46.33;99848.35;109197;1256;71317;-61
2024/01/08 08:09:20;;;;;;;;;;;;;;;-8.10;46.13;99850.45;109151;1255;62536;-61
2024/01/08 08:11:48;;;;;;;;;;;;;;;-8.40;46.67;99853.98;109184;1256;59863;-65
2024/01/08 08:14:15;;;;;;;;;;;;;;;-8.19;46.53;99856.98;109077;1256;74283;-62
2024/01/08 08:16:43;;;;;;;;;;;;;;;-8.13;46.02;99847.24;109037;1256;67538;-61
2024/01/08 08:19:10;;;;;;;;;;;;;;;-8.08;46.13;99858.28;109180;1256;72731;-62
2024/01/08 08:21:38;;;;;;;;;;;;;;;-8.16;46.35;99861.54;109154;1255;60776;-62
2024/01/08 08:24:06;;;;;;;;;;;;;;;-7.93;45.91;99861.61;109164;1257;59864;-64
2024/01/08 08:26:35;;;;;;;;;;;;;;;-7.94;46.01;99863.92;109179;1256;74549;-61
2024/01/08 08:29:03;;;;;;;;;;;;;;;-8.02;45.77;99866.63;109160;1255;68844;-62
2024/01/08 08:31:31;;;;;;;;;;;;;;;-8.18;45.96;99866.58;108419;1256;1002361;-63
2024/01/08 08:33:58;;;;;;;;;;;;;;;-7.76;45.64;99871.69;109198;1256;61566;-61
2024/01/08 08:36:27;;;;;;;;;;;;;;;-7.71;45.42;99869.33;108453;1257;1003207;-60
2024/01/08 08:38:56;;;;;;;;;;;;;;;-7.81;45.53;99866.16;109319;1253;74777;-61
2024/01/08 08:41:23;;;;;;;;;;;;;;;-7.58;45.39;99872.87;109491;1252;68833;-61
2024/01/08 08:43:53;;;;;;;;;;;;;;;-7.32;45.12;99875.27;109479;1254;71792;-62
2024/01/08 08:46:21;;;;;;;;;;;;;;;-7.35;44.91;99873.25;109414;1253;61258;-63
2024/01/08 08:48:48;;;;;;;;;;;;;;;-7.56;45.33;99876.03;109391;1253;60506;-60
2024/01/08 08:51:16;;;;;;;;;;;;;;;-7.48;45.33;99868.75;109314;1253;74244;-62
2024/01/08 08:53:43;;;;;;;;;;;;;;;-7.06;44.71;99883.61;109474;1253;68901;-61
2024/01/08 08:56:11;;;;;;;;;;;;;;;-7.31;44.55;99881.39;109504;1253;72725;-64
2024/01/08 08:58:39;;;;;;;;;;;;;;;-7.06;44.58;99886.71;109355;1253;63000;-62
2024/01/08 09:01:06;;;;;;;;;;;;;;;-6.65;44.26;99887.16;109466;1257;59968;-62
2024/01/08 09:03:34;;;;;;;;;;;;;;;-6.52;43.79;99884.84;109442;1253;74211;-61
2024/01/08 09:06:05;;;;;;;;;;;;;;;-6.19;43.08;99880.33;109482;1253;68505;-63
2024/01/08 09:08:33;;;;;;;;;;;;;;;-6.21;42.72;99874.61;109358;1253;72729;-62
2024/01/08 09:11:00;;;;;;;;;;;;;;;-6.16;42.65;99879.20;109587;1256;61765;-62
2024/01/08 09:13:28;;;;;;;;;;;;;;;-6.00;42.67;99888.52;109560;1253;59675;-64
2024/01/08 09:15:55;;;;;;;;;;;;;;;-5.74;41.89;99886.36;109560;1256;74237;-61
2024/01/08 09:18:22;;;;;;;;;;;;;;;-5.90;41.81;99889.20;109508;1252;67768;-61
2024/01/08 09:20:50;;;;;;;;;;;;;;;-5.75;41.91;99890.95;109619;1252;72729;-65
2024/01/08 09:23:17;;;;;;;;;;;;;;;-5.44;41.74;99893.83;109507;1253;61060;-62
2024/01/08 09:25:45;;;;;;;;;;;;;;;-5.78;41.50;99881.31;109594;1253;59768;-61
2024/01/08 09:28:12;;;;;;;;;;;;;;;-5.90;41.83;99881.47;109539;1253;75639;-61
2024/01/08 09:30:40;;;;;;;;;;;;;;;-5.70;41.76;99890.13;109578;1253;67615;-61
2024/01/08 09:33:08;;;;;;;;;;;;;;;-5.85;41.54;99887.31;109555;1253;72774;-64
2024/01/08 09:35:36;;;;;;;;;;;;;;;-5.82;41.85;99893.64;109563;1253;60446;-63
2024/01/08 09:38:05;;;;;;;;;;;;;;;-5.82;41.86;99880.92;109562;1252;59918;-65
2024/01/08 09:40:32;;;;;;;;;;;;;;;-6.14;42.25;99879.70;109616;1254;74609;-62
2024/01/08 09:43:01;;;;;;;;;;;;;;;-5.79;41.72;99866.43;109582;1253;67414;-64
2024/01/08 09:45:28;;;;;;;;;;;;;;;-6.01;42.21;99880.91;109520;1255;71781;-65
2024/01/08 09:47:55;;;;;;;;;;;;;;;-6.13;42.22;99879.38;109504;1253;61757;-63
2024/01/08 09:50:23;;;;;;;;;;;;;;;-6.44;42.91;99876.14;109342;1254;59727;-64
2024/01/08 09:52:51;;;;;;;;;;;;;;;-6.06;42.52;99878.55;109491;1252;75551;-62
2024/01/08 09:55:18;;;;;;;;;;;;;;;-5.94;42.20;99877.35;109353;1253;66659;-61
2024/01/08 09:57:46;;;;;;;;;;;;;;;-6.32;42.51;99870.13;109147;1254;72757;-64
2024/01/08 10:00:14;;;;;;;;;;;;;;;-6.48;43.04;99874.68;109301;1258;60555;-64
2024/01/08 10:02:41;;;;;;;;;;;;;;;-6.56;43.30;99862.94;109486;1254;59738;-62
2024/01/08 10:05:09;;;;;;;;;;;;;;;-6.52;42.98;99866.70;109111;1253;75512;-64
2024/01/08 10:07:37;;;;;;;;;;;;;;;-6.25;43.19;99868.29;109347;1253;67237;-63
2024/01/08 10:10:05;;;;;;;;;;;;;;;-5.94;42.45;99875.29;109588;1254;71445;-63
2024/01/08 10:12:35;;;;;;;;;;;;;;;-5.81;42.25;99869.81;109608;1253;60470;-64
2024/01/08 10:15:04;;;;;;;;;;;;;;;-5.72;42.01;99864.57;109590;1251;60069;-64
2024/01/08 10:17:31;;;;;;;;;;;;;;;-5.88;42.21;99864.21;109450;1257;75516;-65
2024/01/08 10:20:09;;;;;;;;;;;;;;;-5.58;42.08;99861.08;109619;1253;67244;-63
2024/01/08 10:22:38;;;;;;;;;;;;;;;-5.26;41.60;99868.66;108827;1254;1002803;-64
2024/01/08 10:25:06;;;;;;;;;;;;;;;-5.49;41.77;99854.70;108378;1253;1002357;-61
2024/01/08 10:27:33;;;;;;;;;;;;;;;-5.83;42.11;99867.64;109214;1253;59814;-63
2024/01/08 10:30:01;;;;;;;;;;;;;;;-5.80;42.17;99869.11;109589;1251;75505;-62
2024/01/08 10:32:29;;;;;;;;;;;;;;;-6.06;42.49;99864.50;109604;1253;69304;-65
2024/01/08 10:34:57;;;;;;;;;;;;;;;-6.21;42.90;99877.23;109571;1254;72778;-64
2024/01/08 10:37:24;;;;;;;;;;;;;;;-6.29;43.10;99873.37;109347;1259;60249;-65
2024/01/08 10:39:52;;;;;;;;;;;;;;;-6.22;43.15;99875.16;109075;1254;59787;-64
2024/01/08 10:42:19;;;;;;;;;;;;;;;-6.20;43.28;99874.45;108598;1256;1002220;-62
2024/01/08 10:44:47;;;;;;;;;;;;;;;-6.11;43.56;99875.98;109390;1254;67196;-65
2024/01/08 10:47:15;;;;;;;;;;;;;;;-6.37;43.57;99872.00;109102;1258;72735;-61
2024/01/08 10:49:45;;;;;;;;;;;;;;;-6.61;43.98;99867.30;108505;1257;1002878;-62
2024/01/08 10:52:14;;;;;;;;;;;;;;;-6.44;44.32;99873.02;108615;1260;1002356;-65
2024/01/08 10:54:47;;;;;;;;;;;;;;;-6.17;43.81;99874.61;109102;1254;75572;-64
2024/01/08 10:57:15;;;;;;;;;;;;;;;-6.16;43.62;99872.73;108963;1254;68663;-65
2024/01/08 10:59:42;;;;;;;;;;;;;;;-6.11;43.71;99878.76;109247;1255;72743;-65
2024/01/08 11:02:14;;;;;;;;;;;;;;;-5.95;43.49;99875.02;109276;1257;59735;-64
2024/01/08 11:04:42;;;;;;;;;;;;;;;-6.24;44.08;99875.88;109168;1254;59774;-63
2024/01/08 11:07:15;;;;;;;;;;;;;;;-6.11;43.71;99865.70;108747;1253;1002731;-65
2024/01/08 11:09:43;;;;;;;;;;;;;;;-6.36;44.21;99868.95;109522;1254;67659;-65
2024/01/08 11:12:10;;;;;;;;;;;;;;;-6.12;44.12;99872.32;109317;1254;71411;-66
2024/01/08 11:14:41;;;;;;;;;;;;;;;-6.22;44.11;99874.34;109147;1254;60747;-62
2024/01/08 11:17:09;;;;;;;;;;;;;;;-6.11;43.94;99862.90;109176;1253;59977;-62
2024/01/08 11:19:41;;;;;;;;;;;;;;;-6.08;43.76;99864.34;109514;1254;75526;-62
2024/01/08 11:22:12;;;;;;;;;;;;;;;-5.53;43.57;99870.91;109454;1253;68649;-62
2024/01/08 11:24:41;;;;;;;;;;;;;;;-5.19;42.92;99871.95;108504;1253;1002278;-63
2024/01/08 11:27:08;;;;;;;;;;;;;;;-4.76;42.41;99877.15;109350;1257;63559;-65
2024/01/08 11:29:36;;;;;;;;;;;;;;;-4.85;41.91;99873.99;109333;1252;60067;-63
2024/01/08 11:32:12;;;;;;;;;;;;;;;-4.50;41.79;99880.10;109375;1253;75519;-63
2024/01/08 11:34:46;;;;;;;;;;;;;;;-5.06;42.21;99871.09;109499;1253;68840;-66
2024/01/08 11:37:13;;;;;;;;;;;;;;;-5.34;42.81;99873.70;109466;1253;71467;-62
2024/01/08 11:39:41;;;;;;;;;;;;;;;-5.53;43.11;99878.60;109414;1254;60481;-63
2024/01/08 11:42:08;;;;;;;;;;;;;;;-5.53;43.22;99886.80;109457;1252;59656;-64
2024/01/08 11:44:37;;;;;;;;;;;;;;;-5.71;43.77;99886.04;109494;1254;74266;-60
2024/01/08 11:47:05;;;;;;;;;;;;;;;-5.24;43.26;99891.27;109150;1252;67502;-66
2024/01/08 11:49:32;;;;;;;;;;;;;;;-5.06;43.17;99897.06;109586;1253;72796;-66
2024/01/08 11:52:00;;;;;;;;;;;;;;;-5.29;43.39;99895.73;109556;1252;60832;-64
2024/01/08 11:54:27;;;;;;;;;;;;;;;-5.13;43.26;99896.17;108818;1253;1002459;-63
2024/01/08 11:56:55;;;;;;;;;;;;;;;-4.94;42.85;99888.84;109593;1253;74235;-65
2024/01/08 11:59:32;;;;;;;;;;;;;;;-4.81;42.71;99898.89;109428;1253;68832;-65
2024/01/08 12:02:08;;;;;;;;;;;;;;;-4.96;42.70;99895.49;109576;1253;72741;-63
2024/01/08 12:04:35;;;;;;;;;;;;;;;-4.97;43.01;99899.59;109562;1253;60440;-62
2024/01/08 12:07:03;;;;;;;;;;;;;;;-5.24;43.12;99892.54;109573;1253;59842;-65
2024/01/08 12:09:33;;;;;;;;;;;;;;;-5.49;43.57;99896.06;109537;1253;75547;-65
2024/01/08 12:12:02;;;;;;;;;;;;;;;-5.34;43.64;99902.67;109500;1254;67637;-63
2024/01/08 12:14:30;;;;;;;;;;;;;;;-5.13;43.65;99905.75;109512;1254;72718;-61
2024/01/08 12:16:58;;;;;;;;;;;;;;;-5.09;43.39;99905.92;109519;1254;60783;-64
2024/01/08 12:19:48;;;;;;;;;;;;;;;-4.99;43.59;99902.05;109480;1253;60051;-60
2024/01/08 12:22:17;;;;;;;;;;;;;;;-5.21;43.96;99911.59;109494;1254;75526;-63
2024/01/08 12:24:55;;;;;;;;;;;;;;;-5.20;43.99;99912.57;109216;1253;67627;-62
2024/01/08 12:27:23;;;;;;;;;;;;;;;-5.29;44.11;99912.69;108710;1253;1002262;-61
2024/01/08 12:29:50;;;;;;;;;;;;;;;-5.21;44.35;99914.05;109402;1254;60814;-61
2024/01/08 12:32:18;;;;;;;;;;;;;;;-5.08;44.25;99923.79;109160;1253;59871;-61
2024/01/08 12:34:46;;;;;;;;;;;;;;;-4.88;44.02;99924.38;109503;1254;77514;-65
2024/01/08 12:37:14;;;;;;;;;;;;;;;-5.07;44.28;99918.50;109298;1254;67644;-65
2024/01/08 12:39:42;;;;;;;;;;;;;;;-4.73;44.02;99933.42;109491;1254;71553;-63